Time;durP1;ratioP1;P1;durP2;ratioP2;P2;SDS_P1;SDS_P2;PMS_P1;PMS_P2;Temp;Humidity;BMP_temperature;BMP_pressure;BME280_temperature;BME280_humidity;BME280_pressure;Samples;Min_cycle;Max_cycle;Signal;HPM_P1;HPM_P2
2023/04/18 00:00:32;;;;;;;4.93;3.43;;;;;;;;;;757476;182;854933;-59
2023/04/18 00:02:58;;;;;;;7.80;4.10;;;;;;;;;;763407;182;917358;-59
2023/04/18 00:05:25;;;;;;;3.60;2.67;;;;;;;;;;763817;180;919372;-59
2023/04/18 00:07:51;;;;;;;5.83;4.57;;;;;;;;;;754404;186;918047;-59
2023/04/18 00:10:16;;;;;;;6.37;4.43;;;;;;;;;;754648;183;917544;-59
2023/04/18 00:12:42;;;;;;;5.17;3.70;;;;;;;;;;767500;181;944171;-60
2023/04/18 00:15:08;;;;;;;5.62;3.58;;;;;;;;;;769487;182;918464;-60
2023/04/18 00:17:34;;;;;;;6.10;3.73;;;;;;;;;;764863;183;919343;-59
2023/04/18 00:20:06;;;;;;;7.43;4.63;;;;;;;;;;765346;182;919654;-60
2023/04/18 00:22:27;;;;;;;5.60;4.13;;;;;;;;;;765288;179;628189;-59
2023/04/18 00:24:52;;;;;;;4.70;3.20;;;;;;;;;;762013;185;617081;-59
2023/04/18 00:27:19;;;;;;;6.27;3.67;;;;;;;;;;770501;182;628981;-59
2023/04/18 00:29:44;;;;;;;5.90;4.47;;;;;;;;;;771235;182;624624;-59
2023/04/18 00:32:10;;;;;;;6.07;4.57;;;;;;;;;;761033;183;632043;-59
2023/04/18 00:34:36;;;;;;;6.13;4.10;;;;;;;;;;751685;185;920330;-59
2023/04/18 00:37:02;;;;;;;8.40;4.60;;;;;;;;;;759108;182;922211;-59
2023/04/18 00:39:27;;;;;;;9.55;5.05;;;;;;;;;;767017;182;925992;-59
2023/04/18 00:41:53;;;;;;;6.67;4.73;;;;;;;;;;761547;182;894036;-60
2023/04/18 00:44:19;;;;;;;5.60;4.10;;;;;;;;;;754305;182;918706;-59
2023/04/18 00:46:45;;;;;;;6.90;5.07;;;;;;;;;;758992;182;918852;-59
2023/04/18 00:49:11;;;;;;;6.77;4.20;;;;;;;;;;754398;183;919686;-59
2023/04/18 00:51:37;;;;;;;5.47;3.70;;;;;;;;;;756719;183;919700;-60
2023/04/18 00:54:02;;;;;;;8.80;5.63;;;;;;;;;;767464;183;919838;-59
2023/04/18 00:56:28;;;;;;;10.20;4.60;;;;;;;;;;756872;183;816777;-59
2023/04/18 00:58:54;;;;;;;6.50;4.50;;;;;;;;;;760490;184;919582;-59
2023/04/18 01:01:20;;;;;;;9.33;5.90;;;;;;;;;;765307;182;918815;-60
2023/04/18 01:03:46;;;;;;;12.73;8.50;;;;;;;;;;772999;182;922565;-60
2023/04/18 01:06:12;;;;;;;10.27;6.07;;;;;;;;;;767664;182;818428;-60
2023/04/18 01:08:38;;;;;;;8.90;5.30;;;;;;;;;;765854;182;918156;-59
2023/04/18 01:11:03;;;;;;;8.50;6.93;;;;;;;;;;760832;184;918898;-60
2023/04/18 01:13:29;;;;;;;9.13;6.30;;;;;;;;;;756603;185;918909;-59
2023/04/18 01:15:55;;;;;;;7.33;5.70;;;;;;;;;;745503;186;816711;-59
2023/04/18 01:18:21;;;;;;;9.20;6.33;;;;;;;;;;749329;186;919327;-59
2023/04/18 01:20:47;;;;;;;9.00;5.00;;;;;;;;;;758909;184;919683;-60
2023/04/18 01:23:13;;;;;;;9.10;5.15;;;;;;;;;;770945;181;923476;-59
2023/04/18 01:25:38;;;;;;;13.88;6.35;;;;;;;;;;767144;182;936159;-59
2023/04/18 01:28:05;;;;;;;11.97;7.47;;;;;;;;;;768629;183;917643;-59
2023/04/18 01:30:30;;;;;;;10.23;6.70;;;;;;;;;;756481;180;920020;-59
2023/04/18 01:32:56;;;;;;;7.27;5.37;;;;;;;;;;764658;181;886263;-59
2023/04/18 01:35:22;;;;;;;10.18;7.60;;;;;;;;;;768634;182;918352;-59
2023/04/18 01:37:48;;;;;;;10.23;6.20;;;;;;;;;;768774;182;919838;-59
2023/04/18 01:40:14;;;;;;;6.23;4.50;;;;;;;;;;763082;180;919581;-59
2023/04/18 01:42:40;;;;;;;8.93;4.73;;;;;;;;;;754887;183;922511;-59
2023/04/18 01:45:06;;;;;;;10.83;5.50;;;;;;;;;;761468;184;919310;-59
2023/04/18 01:47:32;;;;;;;8.77;5.53;;;;;;;;;;763777;183;916216;-59
2023/04/18 01:49:58;;;;;;;5.95;5.35;;;;;;;;;;764126;182;812063;-59
2023/04/18 01:52:24;;;;;;;10.90;6.40;;;;;;;;;;768477;182;812112;-62
2023/04/18 01:54:49;;;;;;;12.27;5.37;;;;;;;;;;761430;182;916614;-60
2023/04/18 01:57:15;;;;;;;7.80;6.50;;;;;;;;;;765286;182;915968;-59
2023/04/18 01:59:41;;;;;;;8.00;4.73;;;;;;;;;;772243;183;811531;-60
2023/04/18 02:02:07;;;;;;;9.10;5.70;;;;;;;;;;766922;182;917691;-59
2023/04/18 02:04:33;;;;;;;11.10;8.13;;;;;;;;;;765991;182;918580;-59
2023/04/18 02:06:58;;;;;;;11.60;7.90;;;;;;;;;;765529;181;1019881;-60
2023/04/18 02:09:24;;;;;;;9.17;5.67;;;;;;;;;;772520;181;918736;-59
2023/04/18 02:11:50;;;;;;;6.20;4.63;;;;;;;;;;766351;182;954158;-60
2023/04/18 02:14:16;;;;;;;7.60;4.30;;;;;;;;;;767207;182;920490;-60
2023/04/18 02:16:42;;;;;;;8.03;5.67;;;;;;;;;;767402;182;819329;-60
2023/04/18 02:19:08;;;;;;;11.20;6.50;;;;;;;;;;761952;183;918340;-60
2023/04/18 02:21:34;;;;;;;7.90;5.80;;;;;;;;;;764106;183;917347;-60
2023/04/18 02:23:59;;;;;;;7.30;4.50;;;;;;;;;;767412;183;816278;-59
2023/04/18 02:26:25;;;;;;;7.67;5.23;;;;;;;;;;766493;182;816670;-60
2023/04/18 02:28:51;;;;;;;7.80;6.50;;;;;;;;;;769127;182;918735;-60
2023/04/18 02:31:17;;;;;;;7.53;5.77;;;;;;;;;;767834;182;919209;-60
2023/04/18 02:33:43;;;;;;;8.03;5.00;;;;;;;;;;760215;184;817696;-59
2023/04/18 02:36:09;;;;;;;8.07;6.77;;;;;;;;;;764647;183;820781;-59
2023/04/18 02:38:34;;;;;;;6.73;5.40;;;;;;;;;;764820;183;919307;-60
2023/04/18 02:41:00;;;;;;;10.57;5.30;;;;;;;;;;768637;182;918664;-59
2023/04/18 02:43:26;;;;;;;8.53;6.83;;;;;;;;;;768291;182;919358;-59
2023/04/18 02:45:52;;;;;;;7.13;5.27;;;;;;;;;;767216;182;919210;-60
2023/04/18 02:48:18;;;;;;;10.57;7.80;;;;;;;;;;770663;182;919362;-59
2023/04/18 02:50:44;;;;;;;7.07;6.30;;;;;;;;;;761042;182;922401;-59
2023/04/18 02:53:09;;;;;;;7.32;6.28;;;;;;;;;;765723;179;919937;-59
2023/04/18 02:55:35;;;;;;;8.87;6.37;;;;;;;;;;755015;183;877712;-59
2023/04/18 02:58:01;;;;;;;9.57;8.07;;;;;;;;;;748784;185;918727;-59
2023/04/18 03:00:27;;;;;;;9.27;6.90;;;;;;;;;;754633;181;918800;-59
2023/04/18 03:02:53;;;;;;;8.30;7.40;;;;;;;;;;763340;182;918814;-59
2023/04/18 03:05:19;;;;;;;6.55;5.68;;;;;;;;;;767728;182;918343;-59
2023/04/18 03:07:44;;;;;;;9.07;6.67;;;;;;;;;;764788;182;819018;-59
2023/04/18 03:10:10;;;;;;;8.53;6.27;;;;;;;;;;765699;182;819821;-59
2023/04/18 03:12:36;;;;;;;6.73;3.90;;;;;;;;;;770739;182;817855;-59
2023/04/18 03:15:02;;;;;;;7.80;5.50;;;;;;;;;;767782;182;817572;-59
2023/04/18 03:17:28;;;;;;;6.63;4.10;;;;;;;;;;758837;182;919891;-59
2023/04/18 03:19:54;;;;;;;8.30;5.97;;;;;;;;;;770959;182;921167;-60
2023/04/18 03:22:19;;;;;;;7.43;5.30;;;;;;;;;;759932;181;895516;-59
2023/04/18 03:24:45;;;;;;;9.90;6.82;;;;;;;;;;759911;182;919381;-60
2023/04/18 03:27:11;;;;;;;9.57;5.90;;;;;;;;;;767836;182;919451;-59
2023/04/18 03:29:37;;;;;;;9.40;6.00;;;;;;;;;;772073;182;916883;-59
2023/04/18 03:32:03;;;;;;;7.43;6.63;;;;;;;;;;760153;182;919596;-59
2023/04/18 03:34:29;;;;;;;9.73;7.10;;;;;;;;;;759081;182;921861;-59
2023/04/18 03:36:55;;;;;;;11.73;4.77;;;;;;;;;;766173;182;920621;-59
2023/04/18 03:39:20;;;;;;;13.93;7.33;;;;;;;;;;758123;182;919183;-59
2023/04/18 03:41:46;;;;;;;13.27;6.70;;;;;;;;;;761359;181;919537;-59
2023/04/18 03:44:12;;;;;;;7.17;5.03;;;;;;;;;;770358;181;919991;-59
2023/04/18 03:46:38;;;;;;;13.73;6.83;;;;;;;;;;766183;182;851375;-60
2023/04/18 03:49:04;;;;;;;5.47;4.90;;;;;;;;;;763676;182;919469;-59
2023/04/18 03:51:31;;;;;;;8.60;5.68;;;;;;;;;;769615;181;921782;-59
2023/04/18 03:53:56;;;;;;;10.90;6.70;;;;;;;;;;758953;183;914319;-59
2023/04/18 03:56:22;;;;;;;7.60;4.67;;;;;;;;;;752687;185;817285;-59
2023/04/18 03:58:48;;;;;;;14.27;7.78;;;;;;;;;;756716;182;916773;-59
2023/04/18 04:01:14;;;;;;;10.27;6.23;;;;;;;;;;754252;185;919103;-59
2023/04/18 04:03:40;;;;;;;13.83;6.70;;;;;;;;;;765944;182;921109;-59
2023/04/18 04:06:05;;;;;;;12.25;6.90;;;;;;;;;;766741;182;918645;-59
2023/04/18 04:08:31;;;;;;;10.27;5.73;;;;;;;;;;772915;182;816761;-59
2023/04/18 04:10:57;;;;;;;13.40;8.30;;;;;;;;;;765525;180;816465;-59
2023/04/18 04:13:23;;;;;;;11.67;6.63;;;;;;;;;;747970;186;922587;-59
2023/04/18 04:15:49;;;;;;;10.30;7.67;;;;;;;;;;766711;182;819540;-59
2023/04/18 04:18:15;;;;;;;8.43;6.60;;;;;;;;;;760359;182;914636;-59
2023/04/18 04:20:40;;;;;;;20.10;6.47;;;;;;;;;;759192;182;916847;-59
2023/04/18 04:23:06;;;;;;;9.43;6.10;;;;;;;;;;759966;182;818761;-59
2023/04/18 04:25:32;;;;;;;8.77;7.23;;;;;;;;;;756986;184;918066;-58
2023/04/18 04:28:00;;;;;;;7.20;5.57;;;;;;;;;;761818;182;920670;-59
2023/04/18 04:30:24;;;;;;;12.40;7.65;;;;;;;;;;763248;182;922043;-59
2023/04/18 04:32:50;;;;;;;9.23;6.60;;;;;;;;;;768841;183;814598;-59
2023/04/18 04:35:16;;;;;;;7.10;4.53;;;;;;;;;;752821;183;917301;-59
2023/04/18 04:37:42;;;;;;;14.38;7.07;;;;;;;;;;757745;181;817554;-59
2023/04/18 04:40:08;;;;;;;11.37;7.70;;;;;;;;;;767424;182;617187;-60
2023/04/18 04:42:34;;;;;;;12.47;8.90;;;;;;;;;;753471;182;930956;-59
2023/04/18 04:45:01;;;;;;;17.07;8.50;;;;;;;;;;755691;181;920716;-59
2023/04/18 04:47:26;;;;;;;8.97;7.90;;;;;;;;;;760374;181;909681;-59
2023/04/18 04:49:52;;;;;;;14.30;10.10;;;;;;;;;;771158;181;706705;-59
2023/04/18 04:52:18;;;;;;;15.90;9.10;;;;;;;;;;764241;183;941224;-59
2023/04/18 04:54:45;;;;;;;14.50;9.00;;;;;;;;;;761248;183;818598;-60
2023/04/18 04:57:09;;;;;;;18.30;10.60;;;;;;;;;;766041;182;918893;-60
2023/04/18 04:59:35;;;;;;;15.33;10.37;;;;;;;;;;773340;181;633573;-60
2023/04/18 05:02:01;;;;;;;13.27;6.83;;;;;;;;;;758573;179;917977;-59
2023/04/18 05:04:27;;;;;;;19.80;9.90;;;;;;;;;;762058;182;618686;-60
2023/04/18 05:06:53;;;;;;;22.83;11.00;;;;;;;;;;768535;182;638080;-60
2023/04/18 05:09:19;;;;;;;14.30;11.43;;;;;;;;;;766318;182;917332;-60
2023/04/18 05:11:44;;;;;;;15.63;9.55;;;;;;;;;;757517;180;918682;-59
2023/04/18 05:14:11;;;;;;;14.10;7.70;;;;;;;;;;756734;186;918801;-60
2023/04/18 05:16:36;;;;;;;15.53;11.77;;;;;;;;;;760895;182;919566;-59
2023/04/18 05:19:02;;;;;;;22.85;10.05;;;;;;;;;;759449;182;940900;-60
2023/04/18 05:21:28;;;;;;;12.67;8.07;;;;;;;;;;757761;183;914535;-60
2023/04/18 05:23:54;;;;;;;9.13;5.60;;;;;;;;;;760892;182;919879;-59
2023/04/18 05:26:20;;;;;;;15.30;8.37;;;;;;;;;;771429;182;640283;-59
2023/04/18 05:28:45;;;;;;;12.83;10.10;;;;;;;;;;769533;182;913000;-59
2023/04/18 05:31:11;;;;;;;13.30;8.80;;;;;;;;;;761543;183;918936;-59
2023/04/18 05:33:37;;;;;;;15.03;10.07;;;;;;;;;;752080;183;930165;-58
2023/04/18 05:36:03;;;;;;;14.83;8.73;;;;;;;;;;765661;182;916245;-59
2023/04/18 05:38:29;;;;;;;15.80;11.23;;;;;;;;;;758079;182;921875;-60
2023/04/18 05:40:55;;;;;;;16.07;11.13;;;;;;;;;;757573;182;818101;-58
2023/04/18 05:43:21;;;;;;;14.90;10.27;;;;;;;;;;766731;181;816205;-60
2023/04/18 05:45:47;;;;;;;17.20;11.30;;;;;;;;;;770545;183;815410;-59
2023/04/18 05:48:12;;;;;;;14.60;11.13;;;;;;;;;;757661;182;1119192;-64
2023/04/18 05:50:38;;;;;;;10.80;8.27;;;;;;;;;;755057;182;1020995;-60
2023/04/18 05:53:04;;;;;;;14.13;10.67;;;;;;;;;;764542;182;1023397;-60
2023/04/18 05:55:30;;;;;;;18.57;11.83;;;;;;;;;;755749;182;915132;-59
2023/04/18 05:57:56;;;;;;;15.00;10.90;;;;;;;;;;765321;183;918669;-59
2023/04/18 06:00:22;;;;;;;17.00;12.47;;;;;;;;;;772021;182;857386;-60
2023/04/18 06:02:49;;;;;;;13.27;10.47;;;;;;;;;;766284;181;918343;-59
2023/04/18 06:05:14;;;;;;;13.50;11.10;;;;;;;;;;757607;182;918420;-58
2023/04/18 06:07:39;;;;;;;16.30;10.57;;;;;;;;;;763621;182;862007;-59
2023/04/18 06:10:09;;;;;;;16.43;8.63;;;;;;;;;;761257;184;818267;-59
2023/04/18 06:12:32;;;;;;;12.60;9.53;;;;;;;;;;762109;179;919597;-59
2023/04/18 06:14:58;;;;;;;15.43;8.80;;;;;;;;;;766557;182;817366;-59
2023/04/18 06:17:23;;;;;;;13.50;9.20;;;;;;;;;;774042;182;921466;-59
2023/04/18 06:19:49;;;;;;;15.33;9.30;;;;;;;;;;761576;182;923166;-59
2023/04/18 06:22:15;;;;;;;17.87;12.00;;;;;;;;;;764017;182;819263;-59
2023/04/18 06:24:41;;;;;;;12.50;7.67;;;;;;;;;;762711;183;913690;-60
2023/04/18 06:27:07;;;;;;;16.23;14.53;;;;;;;;;;761832;182;884273;-59
2023/04/18 06:29:33;;;;;;;17.67;12.00;;;;;;;;;;766044;181;921231;-59
2023/04/18 06:31:59;;;;;;;13.73;8.60;;;;;;;;;;768001;181;920507;-59
2023/04/18 06:34:25;;;;;;;15.90;10.43;;;;;;;;;;755393;182;919585;-59
2023/04/18 06:36:51;;;;;;;12.63;8.90;;;;;;;;;;764105;181;909406;-59
2023/04/18 06:39:16;;;;;;;14.23;10.67;;;;;;;;;;763809;180;919598;-59
2023/04/18 06:41:42;;;;;;;15.63;8.23;;;;;;;;;;762656;182;918580;-59
2023/04/18 06:44:08;;;;;;;10.47;7.87;;;;;;;;;;744789;183;918230;-59
2023/04/18 06:46:34;;;;;;;15.00;7.90;;;;;;;;;;754947;184;831420;-59
2023/04/18 06:49:00;;;;;;;17.10;12.63;;;;;;;;;;756733;183;921016;-60
2023/04/18 06:51:26;;;;;;;17.07;9.77;;;;;;;;;;761629;182;920592;-59
2023/04/18 06:53:52;;;;;;;16.80;7.90;;;;;;;;;;767494;181;917831;-59
2023/04/18 06:56:17;;;;;;;18.40;8.03;;;;;;;;;;766874;181;919171;-59
2023/04/18 06:58:43;;;;;;;13.63;9.63;;;;;;;;;;759188;181;817798;-59
2023/04/18 07:01:09;;;;;;;17.30;11.10;;;;;;;;;;753521;183;1022141;-59
2023/04/18 07:03:35;;;;;;;11.70;8.60;;;;;;;;;;762287;182;915369;-59
2023/04/18 07:06:01;;;;;;;19.57;11.90;;;;;;;;;;769198;182;901138;-60
2023/04/18 07:08:27;;;;;;;15.87;7.37;;;;;;;;;;762086;182;919347;-60
2023/04/18 07:10:52;;;;;;;14.80;9.53;;;;;;;;;;751106;184;916419;-59
2023/04/18 07:13:18;;;;;;;20.83;14.57;;;;;;;;;;757749;183;920541;-66
2023/04/18 07:15:44;;;;;;;19.10;11.17;;;;;;;;;;762078;182;918242;-59
2023/04/18 07:18:10;;;;;;;15.80;9.95;;;;;;;;;;765902;180;918087;-59
2023/04/18 07:20:36;;;;;;;21.87;14.00;;;;;;;;;;766641;181;746687;-59
2023/04/18 07:23:02;;;;;;;15.87;9.63;;;;;;;;;;749889;183;917104;-59
2023/04/18 07:25:27;;;;;;;20.95;12.27;;;;;;;;;;748341;185;920905;-59
2023/04/18 07:27:53;;;;;;;14.90;10.20;;;;;;;;;;759997;182;921806;-60
2023/04/18 07:30:19;;;;;;;20.90;10.60;;;;;;;;;;767402;182;921441;-59
2023/04/18 07:32:46;;;;;;;27.00;14.43;;;;;;;;;;766849;181;918390;-59
2023/04/18 07:35:11;;;;;;;18.75;14.27;;;;;;;;;;763560;180;919936;-59
2023/04/18 07:37:37;;;;;;;15.10;8.80;;;;;;;;;;764785;183;921672;-59
2023/04/18 07:40:03;;;;;;;17.50;11.53;;;;;;;;;;752127;184;816658;-59
2023/04/18 07:42:29;;;;;;;18.10;9.90;;;;;;;;;;755717;181;1016839;-59
2023/04/18 07:44:56;;;;;;;17.53;13.53;;;;;;;;;;765930;182;864391;-59
2023/04/18 07:47:21;;;;;;;16.73;10.53;;;;;;;;;;764745;182;816743;-59
2023/04/18 07:49:47;;;;;;;19.40;12.03;;;;;;;;;;755643;182;909938;-59
2023/04/18 07:52:13;;;;;;;19.60;13.87;;;;;;;;;;758299;182;916883;-59
2023/04/18 07:54:39;;;;;;;13.80;9.03;;;;;;;;;;765974;181;912824;-61
2023/04/18 07:57:05;;;;;;;26.00;14.27;;;;;;;;;;762511;182;918913;-59
2023/04/18 07:59:31;;;;;;;14.07;12.50;;;;;;;;;;763751;182;918600;-59
2023/04/18 08:01:56;;;;;;;17.80;10.17;;;;;;;;;;764063;183;920588;-60
2023/04/18 08:04:22;;;;;;;18.83;11.60;;;;;;;;;;766453;181;921343;-59
2023/04/18 08:06:48;;;;;;;19.17;12.07;;;;;;;;;;765675;182;919646;-59
2023/04/18 08:09:14;;;;;;;16.07;10.90;;;;;;;;;;769085;179;913392;-60
2023/04/18 08:11:40;;;;;;;17.50;11.07;;;;;;;;;;763639;182;920267;-59
2023/04/18 08:14:06;;;;;;;16.97;9.87;;;;;;;;;;764666;182;915925;-59
2023/04/18 08:16:32;;;;;;;19.12;14.43;;;;;;;;;;767345;182;916343;-59
2023/04/18 08:18:57;;;;;;;14.07;9.53;;;;;;;;;;759993;183;918564;-59
2023/04/18 08:21:23;;;;;;;15.10;11.30;;;;;;;;;;750619;184;913814;-59
2023/04/18 08:23:49;;;;;;;11.80;8.43;;;;;;;;;;752909;183;919250;-59
2023/04/18 08:26:15;;;;;;;12.93;9.40;;;;;;;;;;761239;184;918691;-59
2023/04/18 08:28:41;;;;;;;18.83;10.80;;;;;;;;;;750980;182;919365;-59
2023/04/18 08:31:07;;;;;;;17.73;10.93;;;;;;;;;;764098;183;919035;-59
2023/04/18 08:33:33;;;;;;;17.97;10.13;;;;;;;;;;768447;183;923057;-59
2023/04/18 08:35:58;;;;;;;13.80;8.37;;;;;;;;;;758471;184;954463;-59
2023/04/18 08:38:24;;;;;;;13.93;9.20;;;;;;;;;;754520;183;918127;-59
2023/04/18 08:40:50;;;;;;;14.10;9.40;;;;;;;;;;769120;183;886020;-59
2023/04/18 08:43:16;;;;;;;15.33;9.77;;;;;;;;;;760678;179;918865;-60
2023/04/18 08:45:42;;;;;;;15.47;10.30;;;;;;;;;;746502;184;921721;-59
2023/04/18 08:48:11;;;;;;;15.93;9.40;;;;;;;;;;761379;183;919167;-59
2023/04/18 08:50:36;;;;;;;15.17;10.93;;;;;;;;;;758689;183;915099;-60
2023/04/18 08:53:02;;;;;;;9.33;7.43;;;;;;;;;;755668;182;927363;-59
2023/04/18 08:55:28;;;;;;;11.90;9.23;;;;;;;;;;764013;181;926406;-59
2023/04/18 08:57:54;;;;;;;16.10;11.77;;;;;;;;;;773618;182;820546;-59
2023/04/18 09:00:21;;;;;;;12.50;10.77;;;;;;;;;;765455;182;919606;-59
2023/04/18 09:02:45;;;;;;;28.13;9.63;;;;;;;;;;763594;182;917189;-59
2023/04/18 09:05:13;;;;;;;15.40;10.50;;;;;;;;;;767335;182;920723;-59
2023/04/18 09:07:38;;;;;;;12.23;7.10;;;;;;;;;;761600;182;919223;-59
2023/04/18 09:10:04;;;;;;;19.90;10.70;;;;;;;;;;758499;182;820681;-59
2023/04/18 09:12:31;;;;;;;16.23;10.50;;;;;;;;;;761646;182;917137;-59
2023/04/18 09:14:56;;;;;;;14.67;11.27;;;;;;;;;;762638;183;915352;-59
2023/04/18 09:17:28;;;;;;;7.10;6.17;;;;;;;;;;750687;184;919150;-59
2023/04/18 09:19:55;;;;;;;17.00;9.20;;;;;;;;;;751985;182;901517;-59
2023/04/18 09:22:20;;;;;;;19.90;9.40;;;;;;;;;;765335;183;919811;-58
2023/04/18 09:24:47;;;;;;;14.83;11.73;;;;;;;;;;748273;186;918200;-59
2023/04/18 09:27:13;;;;;;;16.07;9.40;;;;;;;;;;730206;191;919188;-59
2023/04/18 09:29:40;;;;;;;10.20;7.37;;;;;;;;;;738978;187;919230;-59
2023/04/18 09:32:06;;;;;;;12.00;8.77;;;;;;;;;;737047;190;919214;-59
2023/04/18 09:34:32;;;;;;;14.73;9.60;;;;;;;;;;732117;188;919649;-59
2023/04/18 09:37:06;;;;;;;17.83;7.90;;;;;;;;;;764745;181;922338;-59
2023/04/18 09:39:31;;;;;;;11.90;8.67;;;;;;;;;;765815;181;919898;-59
2023/04/18 09:41:57;;;;;;;11.43;9.20;;;;;;;;;;766961;182;919541;-59
2023/04/18 09:44:23;;;;;;;9.57;8.27;;;;;;;;;;764184;182;917712;-59
2023/04/18 09:46:49;;;;;;;10.00;7.90;;;;;;;;;;752594;185;818706;-59
2023/04/18 09:49:15;;;;;;;10.93;7.40;;;;;;;;;;751886;184;814285;-59
2023/04/18 09:51:41;;;;;;;17.47;11.17;;;;;;;;;;769848;181;915925;-59
2023/04/18 09:54:07;;;;;;;18.63;9.73;;;;;;;;;;766260;181;916166;-58
2023/04/18 09:56:33;;;;;;;11.37;9.70;;;;;;;;;;767513;182;927642;-59
2023/04/18 09:59:00;;;;;;;16.90;10.07;;;;;;;;;;764536;182;925506;-59
2023/04/18 10:01:26;;;;;;;9.80;6.60;;;;;;;;;;762685;183;919284;-59
2023/04/18 10:03:52;;;;;;;15.70;10.53;;;;;;;;;;763247;182;920303;-59
2023/04/18 10:06:18;;;;;;;9.97;7.37;;;;;;;;;;766901;182;919109;-59
2023/04/18 10:08:44;;;;;;;7.03;6.30;;;;;;;;;;767856;181;912696;-60
2023/04/18 10:11:10;;;;;;;13.27;10.53;;;;;;;;;;764998;181;920633;-60
2023/04/18 10:13:36;;;;;;;11.30;7.17;;;;;;;;;;769811;182;919561;-59
2023/04/18 10:16:01;;;;;;;13.13;7.23;;;;;;;;;;765143;182;918189;-59
2023/04/18 10:18:27;;;;;;;13.70;9.30;;;;;;;;;;762469;182;949635;-60
2023/04/18 10:20:53;;;;;;;10.27;8.77;;;;;;;;;;767974;182;920630;-59
2023/04/18 10:23:25;;;;;;;13.70;8.53;;;;;;;;;;767893;181;820323;-59
2023/04/18 10:25:50;;;;;;;11.83;7.93;;;;;;;;;;768161;181;820160;-60
2023/04/18 10:28:16;;;;;;;20.90;12.83;;;;;;;;;;768315;181;813515;-60
2023/04/18 10:30:51;;;;;;;8.80;6.93;;;;;;;;;;769922;182;919218;-59
2023/04/18 10:33:22;;;;;;;11.70;8.00;;;;;;;;;;761092;180;917717;-59
2023/04/18 10:35:54;;;;;;;17.43;8.40;;;;;;;;;;757867;181;918902;-59
2023/04/18 10:38:19;;;;;;;12.70;8.10;;;;;;;;;;766310;182;918276;-59
2023/04/18 10:40:45;;;;;;;10.07;8.17;;;;;;;;;;755608;184;919395;-59
2023/04/18 10:43:12;;;;;;;9.40;7.47;;;;;;;;;;764291;181;927926;-59
2023/04/18 10:45:37;;;;;;;11.93;7.37;;;;;;;;;;755820;182;919645;-59
2023/04/18 10:48:09;;;;;;;11.10;7.30;;;;;;;;;;752334;183;922281;-60
2023/04/18 10:50:34;;;;;;;7.93;7.13;;;;;;;;;;760665;184;917062;-59
2023/04/18 10:53:01;;;;;;;15.87;8.13;;;;;;;;;;763548;182;920063;-59
2023/04/18 10:55:26;;;;;;;9.18;6.25;;;;;;;;;;765796;182;919134;-59
2023/04/18 10:57:55;;;;;;;16.73;7.33;;;;;;;;;;768773;181;916238;-59
2023/04/18 11:00:20;;;;;;;12.77;8.70;;;;;;;;;;767467;179;920668;-59
2023/04/18 11:02:47;;;;;;;10.80;6.60;;;;;;;;;;767015;182;912939;-59
2023/04/18 11:05:13;;;;;;;9.87;6.23;;;;;;;;;;763305;182;858476;-59
2023/04/18 11:07:39;;;;;;;9.63;6.50;;;;;;;;;;743800;186;919272;-60
2023/04/18 11:10:05;;;;;;;10.30;6.40;;;;;;;;;;753035;182;918597;-59
2023/04/18 11:12:31;;;;;;;8.77;5.77;;;;;;;;;;762755;183;940234;-58
2023/04/18 11:14:57;;;;;;;8.63;6.00;;;;;;;;;;770189;182;918816;-59
2023/04/18 11:17:23;;;;;;;11.43;7.63;;;;;;;;;;763225;180;924208;-59
2023/04/18 11:19:49;;;;;;;8.63;5.70;;;;;;;;;;760280;183;919718;-58
2023/04/18 11:22:15;;;;;;;10.10;7.17;;;;;;;;;;758007;184;918268;-59
2023/04/18 11:24:40;;;;;;;9.68;5.95;;;;;;;;;;753259;184;818880;-59
2023/04/18 11:27:07;;;;;;;15.30;9.97;;;;;;;;;;756662;181;853549;-58
2023/04/18 11:29:33;;;;;;;9.83;6.77;;;;;;;;;;763758;182;909136;-61
2023/04/18 11:31:59;;;;;;;9.87;6.10;;;;;;;;;;766709;182;919220;-59
2023/04/18 11:34:29;;;;;;;8.70;6.07;;;;;;;;;;762033;182;916565;-62
2023/04/18 11:36:54;;;;;;;9.30;5.57;;;;;;;;;;766489;182;919333;-58
2023/04/18 11:39:20;;;;;;;9.27;6.60;;;;;;;;;;771384;183;919364;-58
2023/04/18 11:41:55;;;;;;;6.77;5.40;;;;;;;;;;764994;182;912784;-59
2023/04/18 11:44:21;;;;;;;9.93;5.90;;;;;;;;;;759390;182;916809;-61
2023/04/18 11:46:50;;;;;;;8.30;4.43;;;;;;;;;;761230;182;867828;-59
2023/04/18 11:49:20;;;;;;;8.77;5.73;;;;;;;;;;767647;182;919717;-59
2023/04/18 11:51:46;;;;;;;12.80;7.40;;;;;;;;;;757340;183;918703;-60
2023/04/18 11:54:18;;;;;;;9.63;6.63;;;;;;;;;;752111;185;921671;-59
2023/04/18 11:56:44;;;;;;;9.10;5.77;;;;;;;;;;753779;182;917507;-64
2023/04/18 11:59:10;;;;;;;14.90;4.73;;;;;;;;;;765552;182;919686;-62
2023/04/18 12:01:36;;;;;;;7.80;4.13;;;;;;;;;;768033;182;920288;-59
2023/04/18 12:04:03;;;;;;;8.90;5.47;;;;;;;;;;770902;181;919494;-60
2023/04/18 12:06:35;;;;;;;7.43;5.00;;;;;;;;;;767259;181;916564;-62
2023/04/18 12:09:00;;;;;;;14.57;6.27;;;;;;;;;;764863;183;919108;-60
2023/04/18 12:11:26;;;;;;;8.50;5.30;;;;;;;;;;765555;182;916425;-63
2023/04/18 12:13:52;;;;;;;10.13;5.57;;;;;;;;;;756133;183;930391;-62
2023/04/18 12:16:18;;;;;;;12.10;5.77;;;;;;;;;;766805;184;919550;-65
2023/04/18 12:18:46;;;;;;;7.63;4.47;;;;;;;;;;764010;183;919251;-59
2023/04/18 12:21:10;;;;;;;5.67;4.37;;;;;;;;;;747606;187;920140;-64
2023/04/18 12:23:37;;;;;;;15.55;5.47;;;;;;;;;;766165;184;922354;-64
2023/04/18 12:26:02;;;;;;;10.00;7.43;;;;;;;;;;764249;181;913516;-60
2023/04/18 12:28:28;;;;;;;10.83;5.70;;;;;;;;;;758724;182;918893;-63
2023/04/18 12:30:54;;;;;;;7.30;4.90;;;;;;;;;;750792;181;922037;-63
2023/04/18 12:33:20;;;;;;;7.67;3.90;;;;;;;;;;776668;182;824830;-59
2023/04/18 12:35:45;;;;;;;16.10;5.93;;;;;;;;;;766952;182;915264;-62
2023/04/18 12:38:11;;;;;;;10.93;5.07;;;;;;;;;;759563;184;918503;-64
2023/04/18 12:40:37;;;;;;;5.97;3.50;;;;;;;;;;745838;186;919591;-62
2023/04/18 12:43:03;;;;;;;10.40;4.83;;;;;;;;;;756385;183;920062;-59
2023/04/18 12:45:29;;;;;;;8.77;4.67;;;;;;;;;;758462;182;917784;-64
2023/04/18 12:47:55;;;;;;;7.00;4.33;;;;;;;;;;767956;182;918449;-60
2023/04/18 12:50:20;;;;;;;7.27;5.00;;;;;;;;;;763078;182;819796;-59
2023/04/18 12:52:46;;;;;;;5.47;4.50;;;;;;;;;;759661;183;929476;-59
2023/04/18 12:55:12;;;;;;;8.53;5.83;;;;;;;;;;750167;182;920534;-60
2023/04/18 12:57:38;;;;;;;10.87;4.53;;;;;;;;;;767174;183;918484;-63
2023/04/18 13:00:12;;;;;;;6.93;5.80;;;;;;;;;;762569;183;918161;-60
2023/04/18 13:02:38;;;;;;;9.60;5.47;;;;;;;;;;748355;186;918889;-63
2023/04/18 13:05:05;;;;;;;13.98;4.87;;;;;;;;;;752725;184;920309;-65
2023/04/18 13:07:30;;;;;;;14.63;6.07;;;;;;;;;;752908;187;918778;-61
2023/04/18 13:09:56;;;;;;;10.33;5.37;;;;;;;;;;754132;182;921797;-64
2023/04/18 13:12:22;;;;;;;8.17;4.90;;;;;;;;;;760149;182;919097;-61
2023/04/18 13:14:48;;;;;;;6.93;4.30;;;;;;;;;;755991;184;818263;-64
2023/04/18 13:17:14;;;;;;;11.10;4.87;;;;;;;;;;747920;183;917872;-63
2023/04/18 13:19:40;;;;;;;9.30;7.17;;;;;;;;;;751043;185;902355;-63
2023/04/18 13:22:06;;;;;;;7.97;4.70;;;;;;;;;;762864;182;917385;-64
2023/04/18 13:24:32;;;;;;;6.33;3.73;;;;;;;;;;769187;181;815610;-64
2023/04/18 13:26:57;;;;;;;8.80;5.13;;;;;;;;;;766765;182;917261;-61
2023/04/18 13:29:23;;;;;;;7.73;5.17;;;;;;;;;;767909;182;816767;-63
2023/04/18 13:31:49;;;;;;;9.47;4.27;;;;;;;;;;766237;182;921163;-64
2023/04/18 13:34:15;;;;;;;7.40;5.43;;;;;;;;;;766592;182;919419;-63
2023/04/18 13:36:41;;;;;;;6.90;5.80;;;;;;;;;;767329;181;919793;-63
2023/04/18 13:39:07;;;;;;;8.13;6.07;;;;;;;;;;766354;182;918216;-64
2023/04/18 13:41:32;;;;;;;4.83;4.03;;;;;;;;;;765201;181;927008;-60
2023/04/18 13:43:58;;;;;;;7.30;4.87;;;;;;;;;;766680;182;931051;-63
2023/04/18 13:46:26;;;;;;;5.50;4.03;;;;;;;;;;769078;182;919237;-63
2023/04/18 13:48:50;;;;;;;4.77;3.13;;;;;;;;;;759824;179;917916;-62
2023/04/18 13:51:16;;;;;;;6.10;3.60;;;;;;;;;;755560;183;919494;-65
2023/04/18 13:53:42;;;;;;;4.57;3.70;;;;;;;;;;769952;182;919529;-65
2023/04/18 13:56:07;;;;;;;7.93;5.67;;;;;;;;;;765135;182;923259;-63
2023/04/18 13:58:33;;;;;;;5.40;3.80;;;;;;;;;;762713;183;892351;-62
2023/04/18 14:00:59;;;;;;;8.40;5.37;;;;;;;;;;766115;182;919427;-61
2023/04/18 14:03:25;;;;;;;5.20;4.00;;;;;;;;;;769438;181;924975;-60
2023/04/18 14:05:51;;;;;;;7.27;4.77;;;;;;;;;;766877;181;914475;-63
2023/04/18 14:08:17;;;;;;;8.73;4.62;;;;;;;;;;762480;183;920214;-62
2023/04/18 14:10:43;;;;;;;11.73;5.20;;;;;;;;;;767794;183;885177;-60